Historyczne dane pomiarowe

Dodano dane terminowe – wersja testowa.

Dane z okresu 1951-2019

Wersja bazy: 1.34 [2019-03-16, lista zmian], aktualizacja planowana na 2019-04-15

Dane meteo z obszaru Polski uzyskane na podstawie danych udostępnionych przez Instytut Meteorologii i Gospodarki Wodnej – Państwowy Instytut Badawczy.

 

Wybierz Datę:    

       

TemperaturaWilgotnośćWiatrCiśnienieOpadyŚniegCzas trwania zjawisk
 Stacja t tx tn tng RH VA  wxwx mslp ppp RRR   cm mm wxwxwxwxwxwxwx
1994-08-14 14.7 20.5 11.5 9.2 71.5- 3.3 8.0---- 0.0------------
1994-08-13 18.9 21.5 12.7 8.0 75.3- 3.3 3.3---- 2.0------------
1994-08-12 18.2 23.8 13.4 8.9 76.8- 3.7 2.3---- 0.0------------
1994-08-11 19.5 26.3 11.8 7.3 68.8- 1.7 6.3---- 0.0------------
1994-08-10 20.1 26.1 15.0 11.2 70.8- 2.7 2.7---- 0.0------------
1994-08-09 19.0 24.1 14.2 11.4 89.0- 5.3 4.0---- 2.2------------
1994-08-08 20.0 26.9 10.0 11.2 74.8- 4.7 5.3---- 0.0------------
1994-08-07 21.6 27.0 16.2 10.9 72.5- 3.3 6.0---- 0.0------------
1994-08-06 24.1 33.5 17.0 12.0 73.3- 2.0 4.7---- 0.0------------
1994-08-05 24.8 32.1 17.8 18.1 71.0- 3.7 2.3---- 0.0------------
1994-08-04 22.6 28.5 17.8 16.2 71.5- 2.7 4.7---- 0.0------------
1994-08-03 22.3 27.4 18.0 18.4 80.8- 6.7 4.7---- 2.8------------
1994-08-02 25.1 35.0 19.0 16.7 72.0- 4.7 5.3---- 0.1------------
1994-08-01 26.5 34.5 21.6 18.5 65.0- 3.0 5.0---- 0.0------------
1994-07-31 27.6 36.4 20.5 21.2 63.5- 3.3 4.0---- 0.0------------
1994-07-30 26.7 36.4 17.4 15.4 63.0- 2.7 2.7---- 0.0------------
1994-07-29 27.1 36.0 16.2 13.0 59.0- 2.3 2.7---- 0.0------------
1994-07-28 25.0 35.2 15.7 11.9 65.5- 2.0 3.7---- 0.0------------
1994-07-27 25.3 34.0 14.8 10.0 62.8- 1.0 1.7---- 0.0------------
1994-07-26 24.1 32.6 15.2 10.0 62.5- 0.7 4.7---- 0.0------------
1994-07-25 22.7 29.7 13.4 8.8 64.3- 0.3 6.0---- 0.0------------
1994-07-24 23.1 29.7 12.4 11.3 60.3- 0.7 5.0---- 0.0------------
1994-07-23 21.6 27.9 9.7 6.1 61.3- 2.3 4.3---- 0.0------------
1994-07-22 19.6 25.4 9.5 9.1 70.8- 2.3 5.3---- 0.0------------
1994-07-21 20.0 27.5 9.4 8.9 57.8- 2.3 6.7---- 0.0------------
1994-07-20 19.7 23.1 14.5 11.6 57.5- 2.3 6.0---- 0.0------------
1994-07-19 17.9 23.1 10.8 8.4 66.5- 3.7 4.0---- 0.0------------
1994-07-18 17.3 22.8 9.7 5.0 71.5- 2.3 5.3---- 0.0------------
1994-07-17 19.1 24.5 15.0 11.1 77.8- 4.0 3.0---- 0.0------------
1994-07-16 21.2 27.2 16.8 14.1 83.5- 5.7 3.7---- 3.6------------
1994-07-15 26.4 33.7 15.8 16.5 60.8- 2.3 1.7---- 0.0------------
1994-07-14 24.8 32.2 17.9 14.7 73.8- 2.7 0.0---- 0.0------------
1994-07-13 23.6 30.6 16.2 15.7 71.3- 1.0 3.0---- 0.0------------
1994-07-12 22.2 29.8 11.2 14.2 77.0- 1.7 6.0---- 0.0------------
1994-07-11 20.4 26.5 11.6 6.5 71.8- 1.3 5.0---- 0.0------------
1994-07-10 19.4 23.8 14.0 9.9 73.8- 2.3 3.7---- 0.0------------
1994-07-09 16.1 19.2 11.2 8.0 84.5- 5.3 3.7---- 0.0------------
1994-07-08 15.2 20.6 10.3 6.9 89.5- 6.3 6.0---- 18.2------------
1994-07-07 15.7 22.6 8.6 7.2 72.0- 2.7 6.0---- 0.0------------
1994-07-06 16.8 23.2 8.2 10.0 74.5- 5.0 5.3---- 0.0------------
1994-07-05 16.0 22.7 8.5 6.3 78.8- 2.7 9.3---- 0.0------------
1994-07-04 17.7 24.3 6.7 6.6 67.3- 0.0 4.7---- 0.0------------
1994-07-03 17.0 22.7 9.7 8.3 69.3- 3.0 4.7---- 0.0------------
1994-07-02 16.5 22.0 8.2 8.0 65.5- 1.3 4.3---- 0.0------------
1994-07-01 17.4 22.3 10.9 7.0 71.5- 3.0 6.0---- 0.0------------
1994-06-30 19.8 26.4 17.6 15.8 66.5- 3.7 10.3---- 0.0------------
1994-06-29 21.9 30.7 12.9 9.6 72.3- 1.7 2.0---- 0.3------------
1994-06-28 19.6 28.2 11.8 8.4 70.8- 3.0 1.0---- 0.0------------
1994-06-27 20.9 26.5 15.1 10.4 68.5- 1.0 4.7---- 0.0------------
1994-06-26 20.1 30.2 5.4 4.1 65.5- 1.0 8.3---- 0.0------------
1994-06-25 15.9 26.4 5.2 0.0 67.3- 0.0 3.0---- 0.0------------
1994-06-24 14.4 23.5 10.4 8.1 57.3- 1.7 14.3---- 0.0------------
1994-06-23 13.9 17.2 10.3 11.4 64.8- 3.7 20.3---- 4.3------------
1994-06-22 17.4 21.4 11.0 11.4 80.8- 4.3 11.7---- 0.6------------
1994-06-21 15.4 21.7 6.4 5.4 71.8- 2.3 9.0---- 0.0------------
1994-06-20 15.0 17.6 10.9 10.5 65.3- 3.3 14.0---- 0.0------------
1994-06-19 14.3 17.0 11.8 9.6 86.0- 4.7 8.7---- 0.0------------
1994-06-18 11.5 17.5 3.7 -0.3 74.3- 4.7 2.0---- 1.7------------
1994-06-17 10.2 14.3 6.3 2.7 80.8- 3.3 6.0---- 7.0------------
1994-06-16 12.0 15.0 8.1 7.5 71.0- 4.3 8.7---- 1.9------------
261.8 ms

 

Źródłem pochodzenia danych jest Instytut Meteorologii i Gospodarki Wodnej – Państwowy Instytut Badawczy. Dane Instytutu Meteorologii i Gospodarki Wodnej – Państwowego Instytutu Badawczego zostały przetworzone.

Dane źródłowe można odnaleźć na stronie https://dane.imgw.pl